Time;durP1;ratioP1;P1;durP2;ratioP2;P2;SDS_P1;SDS_P2;PMS_P1;PMS_P2;Temp;Humidity;BMP_temperature;BMP_pressure;BME280_temperature;BME280_humidity;BME280_pressure;Samples;Min_cycle;Max_cycle;Signal;HPM_P1;HPM_P2
2023/03/03 00:04:08;;;;;;;108.60;44.50;;;;;;;3.30;67.83;100695.52;682582;1262;139143;-84
2023/03/03 00:19:15;;;;;;;199.50;81.90;;;;;;;3.29;67.77;100678.10;682740;1260;139102;-84
2023/03/03 00:34:27;;;;;;;1161.30;352.00;;;;;;;3.26;68.17;100671.48;682302;1263;139575;-84
2023/03/03 00:49:30;;;;;;;817.60;245.30;;;;;;;3.23;68.24;100667.52;682503;1262;139247;-83
2023/03/03 01:04:34;;;;;;;185.20;56.70;;;;;;;3.20;68.07;100669.23;682464;1260;139416;-85
2023/03/03 01:19:37;;;;;;;176.40;68.10;;;;;;;3.00;68.19;100657.27;682495;1262;138935;-85
2023/03/03 01:34:40;;;;;;;111.70;51.50;;;;;;;2.87;68.69;100642.55;682302;1262;138754;-83
2023/03/03 01:49:51;;;;;;;74.00;33.00;;;;;;;2.63;70.10;100605.90;682624;1262;139017;-82
2023/03/03 02:04:54;;;;;;;93.10;41.30;;;;;;;2.40;72.14;100579.75;682851;1263;138998;-82
2023/03/03 02:20:05;;;;;;;79.10;30.80;;;;;;;2.59;70.70;100597.66;682481;1262;138654;-84
2023/03/03 02:35:27;;;;;;;70.20;31.00;;;;;;;2.32;72.22;100568.75;682416;1263;138677;-83
2023/03/03 02:50:31;;;;;;;82.70;30.80;;;;;;;2.17;74.25;100552.36;682458;1263;138628;-83
2023/03/03 03:05:34;;;;;;;69.30;28.90;;;;;;;2.26;72.74;100557.81;682752;1261;139202;-82
2023/03/03 03:20:40;;;;;;;59.90;26.10;;;;;;;2.06;73.91;100553.42;682815;1262;139198;-83
2023/03/03 03:35:46;;;;;;;62.90;25.30;;;;;;;2.12;73.09;100552.47;682673;1258;137953;-82
2023/03/03 03:50:51;;;;;;;63.60;26.10;;;;;;;2.26;72.84;100552.79;682682;1263;139315;-84
2023/03/03 04:05:54;;;;;;;66.70;28.70;;;;;;;2.27;73.36;100557.42;682869;1269;138853;-82
2023/03/03 04:20:58;;;;;;;60.70;26.30;;;;;;;2.12;75.06;100542.61;682771;1263;138863;-84
2023/03/03 04:36:03;;;;;;;57.70;23.50;;;;;;;2.03;75.42;100543.36;682805;1263;139158;-82
2023/03/03 04:51:06;;;;;;;82.90;32.00;;;;;;;2.01;74.70;100529.69;682721;1261;139000;-82
2023/03/03 05:06:11;;;;;;;61.20;24.90;;;;;;;1.91;75.51;100518.62;682819;1263;139045;-80
2023/03/03 05:21:14;;;;;;;81.80;33.60;;;;;;;1.94;74.61;100510.01;682485;1262;139648;-86
2023/03/03 05:36:18;;;;;;;61.40;24.40;;;;;;;2.01;74.33;100528.13;682508;1263;138895;-82
2023/03/03 05:51:21;;;;;;;63.50;26.90;;;;;;;2.18;74.80;100533.14;682338;1264;138874;-83
2023/03/03 06:06:27;;;;;;;65.20;25.20;;;;;;;2.14;75.87;100530.25;682568;1260;140000;-83
2023/03/03 06:21:30;;;;;;;56.30;23.60;;;;;;;2.25;76.74;100560.27;682206;1262;139181;-85
2023/03/03 06:36:33;;;;;;;59.80;25.80;;;;;;;2.37;77.95;100568.32;682490;1262;139078;-83
2023/03/03 06:51:38;;;;;;;61.50;26.70;;;;;;;2.53;78.05;100574.10;682440;1259;139134;-82
2023/03/03 07:06:42;;;;;;;45.20;21.20;;;;;;;2.59;78.04;100590.17;682671;1263;138844;-83
2023/03/03 07:21:45;;;;;;;91.20;30.50;;;;;;;2.75;76.61;100606.16;682376;1259;138930;-84
2023/03/03 07:36:52;;;;;;;113.90;34.30;;;;;;;2.60;78.66;100601.04;682623;1263;138906;-85
2023/03/03 07:51:58;;;;;;;125.40;35.60;;;;;;;2.53;80.51;100612.94;682666;1260;138960;-83
2023/03/03 08:07:02;;;;;;;83.30;29.50;;;;;;;2.61;81.36;100628.12;682379;1260;139252;-83
2023/03/03 08:22:15;;;;;;;174.70;63.70;;;;;;;2.78;82.53;100627.25;682203;1259;138730;-87
2023/03/03 08:37:18;;;;;;;74.30;29.80;;;;;;;2.87;84.13;100617.33;682468;1262;138960;-84
2023/03/03 08:52:21;;;;;;;38.10;17.30;;;;;;;2.88;85.20;100599.98;682704;1259;138909;-84
2023/03/03 09:07:25;;;;;;;194.90;78.70;;;;;;;2.86;87.63;100596.46;682613;1263;138522;-83
2023/03/03 09:22:35;;;;;;;61.50;28.40;;;;;;;3.18;86.95;100587.20;682447;1260;139155;-83
2023/03/03 09:37:40;;;;;;;145.30;58.10;;;;;;;3.34;87.78;100585.31;682627;1263;138634;-86
2023/03/03 09:53:14;;;;;;;93.80;33.40;;;;;;;3.43;88.51;100590.42;682707;1262;139317;-85
2023/03/03 10:08:44;;;;;;;115.40;39.30;;;;;;;3.70;87.96;100587.04;682506;1262;139173;-84
2023/03/03 10:23:52;;;;;;;102.90;39.60;;;;;;;4.01;86.80;100583.09;682666;1262;139674;-87
2023/03/03 10:39:33;;;;;;;38.30;17.60;;;;;;;4.17;85.87;100581.37;682764;1259;138931;-85
2023/03/03 10:54:55;;;;;;;35.80;14.80;;;;;;;4.26;85.99;100555.55;682704;1259;138850;-87
2023/03/03 11:10:19;;;;;;;30.50;16.20;;;;;;;4.58;85.03;100530.84;682586;1260;138790;-86
2023/03/03 11:25:36;;;;;;;41.70;19.80;;;;;;;5.04;83.81;100521.58;682705;1260;138669;-84
2023/03/03 11:40:55;;;;;;;49.20;21.70;;;;;;;5.30;82.30;100518.90;682598;1262;139271;-84
2023/03/03 11:56:23;;;;;;;78.10;28.00;;;;;;;5.54;80.06;100508.73;682519;1259;139241;-83
2023/03/03 12:11:45;;;;;;;237.80;82.80;;;;;;;5.93;79.76;100498.09;682373;1263;138883;-85
2023/03/03 12:27:06;;;;;;;34.50;17.00;;;;;;;6.55;76.65;100495.96;682453;1262;139956;-89
2023/03/03 12:42:21;;;;;;;80.50;32.70;;;;;;;7.06;74.06;100466.75;683028;1262;138743;-89
2023/03/03 12:57:48;;;;;;;65.10;25.60;;;;;;;8.56;71.54;100451.69;682698;1260;137417;-91
2023/03/03 13:12:54;;;;;;;36.00;16.30;;;;;;;9.80;66.90;100448.45;682173;1262;681807;-86
2023/03/03 13:28:07;;;;;;;27.20;14.60;;;;;;;10.83;63.25;100436.02;682427;1260;138739;-86
2023/03/03 13:43:22;;;;;;;62.60;32.50;;;;;;;10.02;62.24;100422.02;682480;1262;139272;-88
2023/03/03 13:58:41;;;;;;;28.30;13.80;;;;;;;13.53;56.84;100412.91;682489;1260;139202;-84
2023/03/03 14:14:03;;;;;;;19.20;10.90;;;;;;;15.27;52.44;100402.08;682573;1263;138532;-87
2023/03/03 14:29:29;;;;;;;30.10;14.90;;;;;;;10.56;56.48;100394.21;682225;1260;139070;-87
2023/03/03 14:44:48;;;;;;;26.20;14.50;;;;;;;8.53;61.30;100379.82;682307;1263;138260;-84
2023/03/03 15:00:25;;;;;;;26.90;13.00;;;;;;;7.56;64.50;100374.95;682428;1261;138421;-85
2023/03/03 15:15:28;;;;;;;32.90;16.20;;;;;;;7.01;67.79;100354.05;681683;1263;140232;-86
2023/03/03 15:30:39;;;;;;;40.40;17.20;;;;;;;6.87;68.79;100338.71;682464;1262;138902;-85
2023/03/03 15:46:07;;;;;;;35.60;15.60;;;;;;;6.73;69.89;100334.46;682536;1262;138715;-84
2023/03/03 16:01:18;;;;;;;36.50;14.90;;;;;;;6.56;70.26;100320.22;682732;1262;139207;-85
2023/03/03 16:16:33;;;;;;;43.00;19.50;;;;;;;6.05;71.69;100320.73;682560;1261;139366;-84
2023/03/03 16:31:47;;;;;;;40.60;17.30;;;;;;;5.64;74.03;100315.83;682622;1264;138751;-85
2023/03/03 16:46:51;;;;;;;50.90;21.70;;;;;;;5.43;75.29;100309.41;682636;1263;138669;-86
2023/03/03 17:02:14;;;;;;;29.60;14.50;;;;;;;5.34;75.07;100297.35;682324;1262;138662;-85
2023/03/03 17:17:38;;;;;;;33.40;15.40;;;;;;;5.12;76.21;100291.88;682188;1262;138745;-85
2023/03/03 17:32:58;;;;;;;37.80;15.50;;;;;;;5.05;76.71;100291.11;682373;1262;138701;-85
2023/03/03 17:48:19;;;;;;;35.50;18.40;;;;;;;4.87;77.06;100276.27;682257;1262;138877;-85
2023/03/03 18:03:53;;;;;;;31.90;15.00;;;;;;;4.77;78.85;100266.04;682109;1262;138929;-89
2023/03/03 18:19:18;;;;;;;38.20;16.10;;;;;;;4.64;79.90;100239.98;681960;1262;139088;-84
2023/03/03 18:34:40;;;;;;;39.40;14.70;;;;;;;4.58;80.23;100235.81;681637;1265;138624;-85
2023/03/03 18:49:55;;;;;;;26.50;12.50;;;;;;;4.58;79.97;100223.73;682046;1264;138642;-85
2023/03/03 19:05:15;;;;;;;32.50;15.00;;;;;;;4.57;79.56;100206.65;682399;1262;138997;-85
2023/03/03 19:20:22;;;;;;;35.40;15.20;;;;;;;4.55;79.81;100196.55;682462;1263;139159;-85
2023/03/03 19:35:44;;;;;;;30.40;11.80;;;;;;;4.42;80.78;100186.43;682282;1264;138904;-87
2023/03/03 19:51:20;;;;;;;33.30;14.60;;;;;;;4.42;80.74;100179.36;682433;1263;138640;-85
2023/03/03 20:06:43;;;;;;;31.60;13.80;;;;;;;4.54;80.86;100155.23;682469;1265;138669;-87
2023/03/03 20:22:18;;;;;;;44.50;19.10;;;;;;;4.50;81.98;100131.73;682418;1266;139191;-86
2023/03/03 20:37:37;;;;;;;48.10;20.80;;;;;;;4.53;82.60;100112.55;682523;1261;138902;-86
2023/03/03 20:52:53;;;;;;;47.90;20.40;;;;;;;4.48;83.29;100085.28;682338;1260;138818;-86
2023/03/03 21:08:02;;;;;;;38.60;17.60;;;;;;;4.54;83.65;100083.36;682527;1263;138650;-86
2023/03/03 21:23:09;;;;;;;52.50;22.40;;;;;;;4.43;84.46;100060.48;682338;1263;139323;-86
2023/03/03 21:38:31;;;;;;;41.60;20.80;;;;;;;4.45;84.76;100051.52;682631;1263;138703;-84
2023/03/03 21:53:43;;;;;;;41.80;19.70;;;;;;;4.45;84.95;100038.52;682689;1263;138656;-87
2023/03/03 22:08:50;;;;;;;40.10;16.50;;;;;;;4.43;86.02;100015.98;682617;1264;139053;-85
2023/03/03 22:23:57;;;;;;;43.60;19.40;;;;;;;4.58;85.78;99995.77;682407;1264;139990;-84
2023/03/03 22:39:00;;;;;;;36.30;17.30;;;;;;;4.66;85.06;99986.40;682689;1262;138454;-86
2023/03/03 22:54:05;;;;;;;40.40;19.10;;;;;;;4.73;84.66;99970.99;682671;1262;138441;-86
2023/03/03 23:09:12;;;;;;;45.10;19.00;;;;;;;4.70;84.46;99935.05;682539;1273;138594;-87
2023/03/03 23:24:16;;;;;;;41.70;18.80;;;;;;;4.67;84.24;99879.44;682722;1260;138478;-85
2023/03/03 23:39:19;;;;;;;42.00;18.60;;;;;;;4.62;83.75;99843.27;682562;1262;138878;-85
2023/03/03 23:54:23;;;;;;;35.70;18.10;;;;;;;4.68;83.40;99814.96;682556;1263;138726;-87
